sensor_id;sensor_type;location;lat;lon;timestamp;temperature;humidity
8709;DHT22;4391;48.678;9.280;2022-10-18T00:02:21;11.60;99.90
8709;DHT22;4391;48.678;9.280;2022-10-18T00:04:48;11.60;99.90
8709;DHT22;4391;48.678;9.280;2022-10-18T00:07:16;11.60;99.90
8709;DHT22;4391;48.678;9.280;2022-10-18T00:09:43;11.70;99.90
8709;DHT22;4391;48.678;9.280;2022-10-18T00:12:09;11.90;99.90
8709;DHT22;4391;48.678;9.280;2022-10-18T00:14:36;12.00;99.90
8709;DHT22;4391;48.678;9.280;2022-10-18T00:17:03;12.00;99.90
8709;DHT22;4391;48.678;9.280;2022-10-18T00:19:30;11.90;99.90
8709;DHT22;4391;48.678;9.280;2022-10-18T00:21:57;11.80;99.90
8709;DHT22;4391;48.678;9.280;2022-10-18T00:24:25;11.80;99.90
8709;DHT22;4391;48.678;9.280;2022-10-18T00:26:51;11.80;99.90
8709;DHT22;4391;48.678;9.280;2022-10-18T00:29:18;11.80;99.90
8709;DHT22;4391;48.678;9.280;2022-10-18T00:31:45;11.80;99.90
8709;DHT22;4391;48.678;9.280;2022-10-18T00:34:13;11.80;99.90
8709;DHT22;4391;48.678;9.280;2022-10-18T00:36:41;11.80;99.90
8709;DHT22;4391;48.678;9.280;2022-10-18T00:39:13;11.80;99.90
8709;DHT22;4391;48.678;9.280;2022-10-18T00:41:41;11.80;99.90
8709;DHT22;4391;48.678;9.280;2022-10-18T00:47:11;11.70;99.90
8709;DHT22;4391;48.678;9.280;2022-10-18T00:49:41;11.80;99.90
8709;DHT22;4391;48.678;9.280;2022-10-18T00:52:11;11.70;99.90
8709;DHT22;4391;48.678;9.280;2022-10-18T00:54:41;11.70;99.90
8709;DHT22;4391;48.678;9.280;2022-10-18T00:57:10;11.60;99.90
8709;DHT22;4391;48.678;9.280;2022-10-18T00:59:38;11.60;99.90
8709;DHT22;4391;48.678;9.280;2022-10-18T01:02:06;11.60;99.90
8709;DHT22;4391;48.678;9.280;2022-10-18T01:04:33;11.60;99.90
8709;DHT22;4391;48.678;9.280;2022-10-18T01:07:04;11.60;99.90
8709;DHT22;4391;48.678;9.280;2022-10-18T01:09:40;11.60;99.90
8709;DHT22;4391;48.678;9.280;2022-10-18T01:12:17;11.70;99.90
8709;DHT22;4391;48.678;9.280;2022-10-18T01:14:51;11.70;99.90
8709;DHT22;4391;48.678;9.280;2022-10-18T01:17:24;11.70;99.90
8709;DHT22;4391;48.678;9.280;2022-10-18T01:20:33;11.70;99.90
8709;DHT22;4391;48.678;9.280;2022-10-18T01:23:05;11.70;99.90
8709;DHT22;4391;48.678;9.280;2022-10-18T01:25:40;11.90;99.90
8709;DHT22;4391;48.678;9.280;2022-10-18T01:28:24;11.90;99.90
8709;DHT22;4391;48.678;9.280;2022-10-18T01:30:58;12.00;99.90
8709;DHT22;4391;48.678;9.280;2022-10-18T01:33:30;12.00;99.90
8709;DHT22;4391;48.678;9.280;2022-10-18T01:36:02;12.10;99.90
8709;DHT22;4391;48.678;9.280;2022-10-18T01:38:31;12.20;99.90
8709;DHT22;4391;48.678;9.280;2022-10-18T01:41:00;12.20;99.90
8709;DHT22;4391;48.678;9.280;2022-10-18T01:43:29;12.30;99.90
8709;DHT22;4391;48.678;9.280;2022-10-18T01:45:59;12.50;99.90
8709;DHT22;4391;48.678;9.280;2022-10-18T01:48:28;12.50;99.90
8709;DHT22;4391;48.678;9.280;2022-10-18T01:50:55;12.60;99.90
8709;DHT22;4391;48.678;9.280;2022-10-18T01:53:27;12.70;99.90
8709;DHT22;4391;48.678;9.280;2022-10-18T01:56:03;12.70;99.90
8709;DHT22;4391;48.678;9.280;2022-10-18T01:58:37;12.70;99.90
8709;DHT22;4391;48.678;9.280;2022-10-18T02:01:14;12.70;99.90
8709;DHT22;4391;48.678;9.280;2022-10-18T02:03:45;12.70;99.90
8709;DHT22;4391;48.678;9.280;2022-10-18T02:06:18;12.80;99.90
8709;DHT22;4391;48.678;9.280;2022-10-18T02:08:49;12.70;99.90
8709;DHT22;4391;48.678;9.280;2022-10-18T02:11:17;12.70;99.90
8709;DHT22;4391;48.678;9.280;2022-10-18T02:13:48;12.60;99.90
8709;DHT22;4391;48.678;9.280;2022-10-18T02:16:20;12.70;99.90
8709;DHT22;4391;48.678;9.280;2022-10-18T02:18:49;12.70;99.90
8709;DHT22;4391;48.678;9.280;2022-10-18T02:21:18;12.70;99.90
8709;DHT22;4391;48.678;9.280;2022-10-18T02:23:47;12.70;99.90
8709;DHT22;4391;48.678;9.280;2022-10-18T02:26:15;12.70;99.90
8709;DHT22;4391;48.678;9.280;2022-10-18T02:28:42;12.70;99.90
8709;DHT22;4391;48.678;9.280;2022-10-18T02:31:13;12.70;99.90
8709;DHT22;4391;48.678;9.280;2022-10-18T02:33:48;12.70;99.90
8709;DHT22;4391;48.678;9.280;2022-10-18T02:36:21;12.60;99.90
8709;DHT22;4391;48.678;9.280;2022-10-18T02:38:53;12.70;99.90
8709;DHT22;4391;48.678;9.280;2022-10-18T02:41:24;12.70;99.90
8709;DHT22;4391;48.678;9.280;2022-10-18T02:43:51;12.70;99.90
8709;DHT22;4391;48.678;9.280;2022-10-18T02:46:19;12.70;99.90
8709;DHT22;4391;48.678;9.280;2022-10-18T02:48:47;12.60;99.90
8709;DHT22;4391;48.678;9.280;2022-10-18T02:51:14;12.70;99.90
8709;DHT22;4391;48.678;9.280;2022-10-18T02:53:41;12.70;99.90
8709;DHT22;4391;48.678;9.280;2022-10-18T02:56:08;12.70;99.90
8709;DHT22;4391;48.678;9.280;2022-10-18T02:58:35;12.70;99.90
8709;DHT22;4391;48.678;9.280;2022-10-18T03:01:01;12.70;99.90
8709;DHT22;4391;48.678;9.280;2022-10-18T03:03:28;12.70;99.90
8709;DHT22;4391;48.678;9.280;2022-10-18T03:05:56;12.60;99.90
8709;DHT22;4391;48.678;9.280;2022-10-18T03:08:24;12.70;99.90
8709;DHT22;4391;48.678;9.280;2022-10-18T03:10:50;12.70;99.90
8709;DHT22;4391;48.678;9.280;2022-10-18T03:13:17;12.70;99.90
8709;DHT22;4391;48.678;9.280;2022-10-18T03:15:44;12.70;99.90
8709;DHT22;4391;48.678;9.280;2022-10-18T03:18:11;12.70;99.90
8709;DHT22;4391;48.678;9.280;2022-10-18T03:20:39;12.70;99.90
8709;DHT22;4391;48.678;9.280;2022-10-18T03:23:07;12.70;99.90
8709;DHT22;4391;48.678;9.280;2022-10-18T03:25:34;12.70;99.90
8709;DHT22;4391;48.678;9.280;2022-10-18T03:28:00;12.70;99.90
8709;DHT22;4391;48.678;9.280;2022-10-18T03:30:27;12.70;99.90
8709;DHT22;4391;48.678;9.280;2022-10-18T03:32:54;12.70;99.90
8709;DHT22;4391;48.678;9.280;2022-10-18T03:35:21;12.70;99.90
8709;DHT22;4391;48.678;9.280;2022-10-18T03:37:47;12.70;99.90
8709;DHT22;4391;48.678;9.280;2022-10-18T03:40:16;12.70;99.90
8709;DHT22;4391;48.678;9.280;2022-10-18T03:42:42;12.70;99.90
8709;DHT22;4391;48.678;9.280;2022-10-18T03:45:09;12.70;99.90
8709;DHT22;4391;48.678;9.280;2022-10-18T03:47:36;12.70;99.90
8709;DHT22;4391;48.678;9.280;2022-10-18T03:50:03;12.70;99.90
8709;DHT22;4391;48.678;9.280;2022-10-18T03:52:30;12.70;99.90
8709;DHT22;4391;48.678;9.280;2022-10-18T03:54:57;12.70;99.90
8709;DHT22;4391;48.678;9.280;2022-10-18T03:57:25;12.60;99.90
8709;DHT22;4391;48.678;9.280;2022-10-18T03:59:52;12.70;99.90
8709;DHT22;4391;48.678;9.280;2022-10-18T04:02:19;12.80;99.90
8709;DHT22;4391;48.678;9.280;2022-10-18T04:04:45;12.90;99.90
8709;DHT22;4391;48.678;9.280;2022-10-18T04:07:12;12.90;99.90
8709;DHT22;4391;48.678;9.280;2022-10-18T04:09:39;12.90;99.90
8709;DHT22;4391;48.678;9.280;2022-10-18T04:12:06;12.90;99.90
8709;DHT22;4391;48.678;9.280;2022-10-18T04:14:34;12.90;99.90
8709;DHT22;4391;48.678;9.280;2022-10-18T04:17:01;12.90;99.90
8709;DHT22;4391;48.678;9.280;2022-10-18T04:19:29;12.90;99.90
8709;DHT22;4391;48.678;9.280;2022-10-18T04:21:55;13.00;99.90
8709;DHT22;4391;48.678;9.280;2022-10-18T04:24:22;13.10;99.90
8709;DHT22;4391;48.678;9.280;2022-10-18T04:26:49;13.10;99.90
8709;DHT22;4391;48.678;9.280;2022-10-18T04:29:16;13.10;99.90
8709;DHT22;4391;48.678;9.280;2022-10-18T04:31:44;13.10;99.90
8709;DHT22;4391;48.678;9.280;2022-10-18T04:34:11;13.10;99.90
8709;DHT22;4391;48.678;9.280;2022-10-18T04:36:37;13.00;99.90
8709;DHT22;4391;48.678;9.280;2022-10-18T04:39:04;13.00;99.90
8709;DHT22;4391;48.678;9.280;2022-10-18T04:41:31;13.00;99.90
8709;DHT22;4391;48.678;9.280;2022-10-18T04:43:58;13.00;99.90
8709;DHT22;4391;48.678;9.280;2022-10-18T04:46:24;12.90;99.90
8709;DHT22;4391;48.678;9.280;2022-10-18T04:48:52;13.00;99.90
8709;DHT22;4391;48.678;9.280;2022-10-18T04:51:19;12.90;99.90
8709;DHT22;4391;48.678;9.280;2022-10-18T04:53:46;12.80;99.90
8709;DHT22;4391;48.678;9.280;2022-10-18T04:56:13;12.80;99.90
8709;DHT22;4391;48.678;9.280;2022-10-18T04:58:39;12.80;99.90
8709;DHT22;4391;48.678;9.280;2022-10-18T05:01:06;12.70;99.90
8709;DHT22;4391;48.678;9.280;2022-10-18T05:03:33;12.70;99.90
8709;DHT22;4391;48.678;9.280;2022-10-18T05:06:01;12.60;99.90
8709;DHT22;4391;48.678;9.280;2022-10-18T05:08:31;12.70;99.90
8709;DHT22;4391;48.678;9.280;2022-10-18T05:10:58;12.60;99.90
8709;DHT22;4391;48.678;9.280;2022-10-18T05:13:25;12.60;99.90
8709;DHT22;4391;48.678;9.280;2022-10-18T05:15:52;12.60;99.90
8709;DHT22;4391;48.678;9.280;2022-10-18T05:18:18;12.50;99.90
8709;DHT22;4391;48.678;9.280;2022-10-18T05:20:45;12.60;99.90
8709;DHT22;4391;48.678;9.280;2022-10-18T05:23:13;12.50;99.90
8709;DHT22;4391;48.678;9.280;2022-10-18T05:25:41;12.50;99.90
8709;DHT22;4391;48.678;9.280;2022-10-18T05:28:08;12.50;99.90
8709;DHT22;4391;48.678;9.280;2022-10-18T05:30:36;12.60;99.90
8709;DHT22;4391;48.678;9.280;2022-10-18T05:33:03;12.70;99.90
8709;DHT22;4391;48.678;9.280;2022-10-18T05:35:30;13.00;99.90
8709;DHT22;4391;48.678;9.280;2022-10-18T05:37:57;13.10;99.90
8709;DHT22;4391;48.678;9.280;2022-10-18T05:40:25;13.30;99.90
8709;DHT22;4391;48.678;9.280;2022-10-18T05:42:52;13.50;99.90
8709;DHT22;4391;48.678;9.280;2022-10-18T05:45:19;13.70;99.90
8709;DHT22;4391;48.678;9.280;2022-10-18T05:47:45;13.90;99.90
8709;DHT22;4391;48.678;9.280;2022-10-18T05:50:13;14.20;98.10
8709;DHT22;4391;48.678;9.280;2022-10-18T05:52:40;14.40;92.70
8709;DHT22;4391;48.678;9.280;2022-10-18T05:55:07;14.40;81.50
8709;DHT22;4391;48.678;9.280;2022-10-18T05:57:35;14.10;85.90
8709;DHT22;4391;48.678;9.280;2022-10-18T06:00:03;13.80;94.60
8709;DHT22;4391;48.678;9.280;2022-10-18T06:02:30;13.50;99.90
8709;DHT22;4391;48.678;9.280;2022-10-18T06:04:56;13.20;99.90
8709;DHT22;4391;48.678;9.280;2022-10-18T06:07:23;13.10;99.90
8709;DHT22;4391;48.678;9.280;2022-10-18T06:09:50;12.90;99.90
8709;DHT22;4391;48.678;9.280;2022-10-18T06:12:17;12.80;99.90
8709;DHT22;4391;48.678;9.280;2022-10-18T06:14:45;12.80;99.90
8709;DHT22;4391;48.678;9.280;2022-10-18T06:17:13;12.70;99.90
8709;DHT22;4391;48.678;9.280;2022-10-18T06:19:40;12.60;99.90
8709;DHT22;4391;48.678;9.280;2022-10-18T06:22:09;12.60;99.90
8709;DHT22;4391;48.678;9.280;2022-10-18T06:24:35;12.50;99.90
8709;DHT22;4391;48.678;9.280;2022-10-18T06:27:02;12.50;99.90
8709;DHT22;4391;48.678;9.280;2022-10-18T06:29:33;12.50;99.90
8709;DHT22;4391;48.678;9.280;2022-10-18T06:32:01;12.50;99.90
8709;DHT22;4391;48.678;9.280;2022-10-18T06:34:28;12.50;99.90
8709;DHT22;4391;48.678;9.280;2022-10-18T06:36:54;12.50;99.90
8709;DHT22;4391;48.678;9.280;2022-10-18T06:39:21;12.70;99.90
8709;DHT22;4391;48.678;9.280;2022-10-18T06:41:48;12.80;99.90
8709;DHT22;4391;48.678;9.280;2022-10-18T06:44:15;13.10;99.90
8709;DHT22;4391;48.678;9.280;2022-10-18T06:46:43;13.30;99.90
8709;DHT22;4391;48.678;9.280;2022-10-18T06:49:12;13.60;99.90
8709;DHT22;4391;48.678;9.280;2022-10-18T06:51:40;13.80;99.90
8709;DHT22;4391;48.678;9.280;2022-10-18T06:54:07;14.00;99.90
8709;DHT22;4391;48.678;9.280;2022-10-18T06:56:34;14.30;99.90
8709;DHT22;4391;48.678;9.280;2022-10-18T06:59:01;14.40;99.90
8709;DHT22;4391;48.678;9.280;2022-10-18T07:01:28;14.60;99.90
8709;DHT22;4391;48.678;9.280;2022-10-18T07:03:55;14.80;99.90
8709;DHT22;4391;48.678;9.280;2022-10-18T07:06:23;15.00;89.10
8709;DHT22;4391;48.678;9.280;2022-10-18T07:08:50;15.10;56.20
8709;DHT22;4391;48.678;9.280;2022-10-18T07:11:20;15.10;42.70
8709;DHT22;4391;48.678;9.280;2022-10-18T07:16:17;15.10;54.00
8709;DHT22;4391;48.678;9.280;2022-10-18T07:18:46;15.10;51.50
8709;DHT22;4391;48.678;9.280;2022-10-18T07:21:15;15.20;52.90
8709;DHT22;4391;48.678;9.280;2022-10-18T07:23:44;15.10;55.70
8709;DHT22;4391;48.678;9.280;2022-10-18T07:26:13;15.20;54.90
8709;DHT22;4391;48.678;9.280;2022-10-18T07:28:41;15.30;53.80
8709;DHT22;4391;48.678;9.280;2022-10-18T07:31:08;15.40;47.10
8709;DHT22;4391;48.678;9.280;2022-10-18T07:33:36;15.50;48.60
8709;DHT22;4391;48.678;9.280;2022-10-18T07:36:04;15.60;42.90
8709;DHT22;4391;48.678;9.280;2022-10-18T07:38:31;15.70;44.30
8709;DHT22;4391;48.678;9.280;2022-10-18T07:41:00;15.80;59.00
8709;DHT22;4391;48.678;9.280;2022-10-18T07:43:28;16.00;28.20
8709;DHT22;4391;48.678;9.280;2022-10-18T07:45:56;16.20;6.20
8709;DHT22;4391;48.678;9.280;2022-10-18T07:48:23;16.30;5.90
8709;DHT22;4391;48.678;9.280;2022-10-18T07:50:49;16.50;1.00
8709;DHT22;4391;48.678;9.280;2022-10-18T07:53:16;16.50;1.00
8709;DHT22;4391;48.678;9.280;2022-10-18T07:55:43;16.60;1.00
8709;DHT22;4391;48.678;9.280;2022-10-18T07:58:11;16.70;1.00
8709;DHT22;4391;48.678;9.280;2022-10-18T08:00:38;16.80;1.00
8709;DHT22;4391;48.678;9.280;2022-10-18T08:03:05;16.80;1.00
8709;DHT22;4391;48.678;9.280;2022-10-18T08:05:32;16.90;1.00
8709;DHT22;4391;48.678;9.280;2022-10-18T08:07:58;17.00;1.00
8709;DHT22;4391;48.678;9.280;2022-10-18T08:10:25;17.10;1.00
8709;DHT22;4391;48.678;9.280;2022-10-18T08:12:52;17.20;1.00
8709;DHT22;4391;48.678;9.280;2022-10-18T08:15:21;17.20;1.00
8709;DHT22;4391;48.678;9.280;2022-10-18T08:17:50;17.30;1.00
8709;DHT22;4391;48.678;9.280;2022-10-18T08:20:17;17.50;1.00
8709;DHT22;4391;48.678;9.280;2022-10-18T08:22:44;17.60;1.00
8709;DHT22;4391;48.678;9.280;2022-10-18T08:25:10;17.70;1.00
8709;DHT22;4391;48.678;9.280;2022-10-18T08:27:37;17.80;1.00
8709;DHT22;4391;48.678;9.280;2022-10-18T08:30:05;17.90;1.00
8709;DHT22;4391;48.678;9.280;2022-10-18T08:32:35;18.20;1.00
8709;DHT22;4391;48.678;9.280;2022-10-18T08:35:02;18.40;1.00
8709;DHT22;4391;48.678;9.280;2022-10-18T08:37:28;18.60;1.00
8709;DHT22;4391;48.678;9.280;2022-10-18T08:39:55;18.70;1.00
8709;DHT22;4391;48.678;9.280;2022-10-18T08:42:34;18.70;1.00
8709;DHT22;4391;48.678;9.280;2022-10-18T08:45:04;18.70;1.00
8709;DHT22;4391;48.678;9.280;2022-10-18T08:47:36;18.70;1.00
8709;DHT22;4391;48.678;9.280;2022-10-18T08:50:06;18.80;1.00
8709;DHT22;4391;48.678;9.280;2022-10-18T08:52:38;18.90;99.90
8709;DHT22;4391;48.678;9.280;2022-10-18T08:55:12;19.00;1.00
8709;DHT22;4391;48.678;9.280;2022-10-18T08:57:41;19.20;99.90
8709;DHT22;4391;48.678;9.280;2022-10-18T09:00:14;19.30;99.90
8709;DHT22;4391;48.678;9.280;2022-10-18T09:02:53;19.50;99.90
8709;DHT22;4391;48.678;9.280;2022-10-18T09:05:27;19.70;99.90
8709;DHT22;4391;48.678;9.280;2022-10-18T09:11:03;19.90;67.70
8709;DHT22;4391;48.678;9.280;2022-10-18T09:14:02;20.20;1.00
8709;DHT22;4391;48.678;9.280;2022-10-18T09:16:41;20.50;99.90
8709;DHT22;4391;48.678;9.280;2022-10-18T09:19:20;20.70;99.90
8709;DHT22;4391;48.678;9.280;2022-10-18T09:21:54;20.70;99.90
8709;DHT22;4391;48.678;9.280;2022-10-18T09:24:25;20.80;1.00
8709;DHT22;4391;48.678;9.280;2022-10-18T09:26:59;20.80;99.90
8709;DHT22;4391;48.678;9.280;2022-10-18T09:29:39;20.70;1.00
8709;DHT22;4391;48.678;9.280;2022-10-18T09:32:22;20.60;23.80
8709;DHT22;4391;48.678;9.280;2022-10-18T09:34:55;20.40;1.00
8709;DHT22;4391;48.678;9.280;2022-10-18T09:37:24;20.30;99.90
8709;DHT22;4391;48.678;9.280;2022-10-18T09:40:02;20.20;1.00
8709;DHT22;4391;48.678;9.280;2022-10-18T09:42:34;20.40;1.00
8709;DHT22;4391;48.678;9.280;2022-10-18T09:45:03;20.80;1.00
8709;DHT22;4391;48.678;9.280;2022-10-18T09:47:35;21.20;1.00
8709;DHT22;4391;48.678;9.280;2022-10-18T09:50:15;21.40;1.00
8709;DHT22;4391;48.678;9.280;2022-10-18T09:52:47;21.50;99.90
8709;DHT22;4391;48.678;9.280;2022-10-18T09:55:22;21.40;1.00
8709;DHT22;4391;48.678;9.280;2022-10-18T09:57:52;21.20;1.00
8709;DHT22;4391;48.678;9.280;2022-10-18T10:00:25;21.20;50.90
8709;DHT22;4391;48.678;9.280;2022-10-18T10:02:53;21.60;99.90
8709;DHT22;4391;48.678;9.280;2022-10-18T10:05:21;22.50;99.90
8709;DHT22;4391;48.678;9.280;2022-10-18T10:07:48;23.30;3.90
8709;DHT22;4391;48.678;9.280;2022-10-18T10:10:23;24.60;1.00
8709;DHT22;4391;48.678;9.280;2022-10-18T10:13:03;24.90;99.90
8709;DHT22;4391;48.678;9.280;2022-10-18T10:15:31;24.10;99.90
8709;DHT22;4391;48.678;9.280;2022-10-18T10:18:02;23.40;1.00
8709;DHT22;4391;48.678;9.280;2022-10-18T10:20:34;23.50;1.00
8709;DHT22;4391;48.678;9.280;2022-10-18T10:23:08;23.40;1.00
8709;DHT22;4391;48.678;9.280;2022-10-18T10:25:36;23.10;1.00
8709;DHT22;4391;48.678;9.280;2022-10-18T10:28:06;23.20;1.00
8709;DHT22;4391;48.678;9.280;2022-10-18T10:30:37;24.30;1.00
8709;DHT22;4391;48.678;9.280;2022-10-18T10:33:04;25.10;99.90
8709;DHT22;4391;48.678;9.280;2022-10-18T10:35:34;25.60;99.90
8709;DHT22;4391;48.678;9.280;2022-10-18T10:38:02;25.40;99.90
8709;DHT22;4391;48.678;9.280;2022-10-18T10:40:30;25.10;99.90
8709;DHT22;4391;48.678;9.280;2022-10-18T10:43:03;24.70;99.90
8709;DHT22;4391;48.678;9.280;2022-10-18T10:45:33;24.30;99.90
8709;DHT22;4391;48.678;9.280;2022-10-18T10:48:07;24.50;99.90
8709;DHT22;4391;48.678;9.280;2022-10-18T10:50:50;24.60;99.90
8709;DHT22;4391;48.678;9.280;2022-10-18T10:53:34;24.50;99.90
8709;DHT22;4391;48.678;9.280;2022-10-18T10:56:02;24.70;99.90
8709;DHT22;4391;48.678;9.280;2022-10-18T10:58:34;25.40;99.90
8709;DHT22;4391;48.678;9.280;2022-10-18T11:01:21;26.40;99.90
8709;DHT22;4391;48.678;9.280;2022-10-18T11:03:49;27.30;99.90
8709;DHT22;4391;48.678;9.280;2022-10-18T11:06:41;27.70;99.90
8709;DHT22;4391;48.678;9.280;2022-10-18T11:09:22;28.00;99.90
8709;DHT22;4391;48.678;9.280;2022-10-18T11:11:58;28.20;99.90
8709;DHT22;4391;48.678;9.280;2022-10-18T11:14:29;28.40;99.90
8709;DHT22;4391;48.678;9.280;2022-10-18T11:17:02;29.30;99.90
8709;DHT22;4391;48.678;9.280;2022-10-18T11:19:37;29.90;99.90
8709;DHT22;4391;48.678;9.280;2022-10-18T11:22:11;29.80;99.90
8709;DHT22;4391;48.678;9.280;2022-10-18T11:24:41;30.20;99.90
8709;DHT22;4391;48.678;9.280;2022-10-18T11:27:13;30.80;99.90
8709;DHT22;4391;48.678;9.280;2022-10-18T11:32:40;30.70;99.90
8709;DHT22;4391;48.678;9.280;2022-10-18T11:35:22;31.10;99.90
8709;DHT22;4391;48.678;9.280;2022-10-18T11:38:04;30.60;99.90
8709;DHT22;4391;48.678;9.280;2022-10-18T11:40:46;29.50;99.90
8709;DHT22;4391;48.678;9.280;2022-10-18T11:43:22;28.30;99.90
8709;DHT22;4391;48.678;9.280;2022-10-18T11:45:56;27.40;99.90
8709;DHT22;4391;48.678;9.280;2022-10-18T11:48:46;26.60;99.90
8709;DHT22;4391;48.678;9.280;2022-10-18T11:51:22;25.80;99.90
8709;DHT22;4391;48.678;9.280;2022-10-18T11:54:07;25.30;99.90
8709;DHT22;4391;48.678;9.280;2022-10-18T11:56:43;24.90;99.90
8709;DHT22;4391;48.678;9.280;2022-10-18T11:59:25;24.40;99.90
8709;DHT22;4391;48.678;9.280;2022-10-18T12:02:07;24.00;99.90
8709;DHT22;4391;48.678;9.280;2022-10-18T12:04:44;23.90;1.00
8709;DHT22;4391;48.678;9.280;2022-10-18T12:07:14;23.60;1.00
8709;DHT22;4391;48.678;9.280;2022-10-18T12:09:44;23.60;1.00
8709;DHT22;4391;48.678;9.280;2022-10-18T12:12:17;23.50;1.00
8709;DHT22;4391;48.678;9.280;2022-10-18T12:14:47;23.30;1.00
8709;DHT22;4391;48.678;9.280;2022-10-18T12:17:18;23.30;1.00
8709;DHT22;4391;48.678;9.280;2022-10-18T12:19:47;23.20;1.00
8709;DHT22;4391;48.678;9.280;2022-10-18T12:22:20;23.30;1.00
8709;DHT22;4391;48.678;9.280;2022-10-18T12:24:49;23.20;1.00
8709;DHT22;4391;48.678;9.280;2022-10-18T12:27:17;23.30;1.00
8709;DHT22;4391;48.678;9.280;2022-10-18T12:29:49;23.30;1.00
8709;DHT22;4391;48.678;9.280;2022-10-18T12:32:20;24.30;1.00
8709;DHT22;4391;48.678;9.280;2022-10-18T12:34:49;26.20;99.90
8709;DHT22;4391;48.678;9.280;2022-10-18T12:40:23;29.00;99.90
8709;DHT22;4391;48.678;9.280;2022-10-18T12:42:53;30.30;99.90
8709;DHT22;4391;48.678;9.280;2022-10-18T12:45:28;30.40;99.90
8709;DHT22;4391;48.678;9.280;2022-10-18T12:48:01;30.20;99.90
8709;DHT22;4391;48.678;9.280;2022-10-18T12:50:33;29.90;99.90
8709;DHT22;4391;48.678;9.280;2022-10-18T12:53:06;31.30;99.90
8709;DHT22;4391;48.678;9.280;2022-10-18T12:55:36;32.70;99.90
8709;DHT22;4391;48.678;9.280;2022-10-18T12:58:20;34.20;99.90
8709;DHT22;4391;48.678;9.280;2022-10-18T13:01:01;34.90;99.90
8709;DHT22;4391;48.678;9.280;2022-10-18T13:03:58;35.50;99.90
8709;DHT22;4391;48.678;9.280;2022-10-18T13:09:20;36.00;99.90
8709;DHT22;4391;48.678;9.280;2022-10-18T13:11:49;36.40;99.90
8709;DHT22;4391;48.678;9.280;2022-10-18T13:16:48;35.70;99.90
8709;DHT22;4391;48.678;9.280;2022-10-18T13:19:22;35.00;99.90
8709;DHT22;4391;48.678;9.280;2022-10-18T13:22:03;33.80;99.90
8709;DHT22;4391;48.678;9.280;2022-10-18T13:24:38;31.90;99.90
8709;DHT22;4391;48.678;9.280;2022-10-18T13:27:24;30.10;99.90
8709;DHT22;4391;48.678;9.280;2022-10-18T13:30:14;28.50;99.90
8709;DHT22;4391;48.678;9.280;2022-10-18T13:32:51;27.40;99.90
8709;DHT22;4391;48.678;9.280;2022-10-18T13:35:48;26.30;99.90
8709;DHT22;4391;48.678;9.280;2022-10-18T13:38:34;25.40;99.90
8709;DHT22;4391;48.678;9.280;2022-10-18T13:41:03;24.60;99.90
8709;DHT22;4391;48.678;9.280;2022-10-18T13:52:54;22.60;99.90
8709;DHT22;4391;48.678;9.280;2022-10-18T13:55:43;22.70;99.90
8709;DHT22;4391;48.678;9.280;2022-10-18T13:58:17;22.70;1.00
8709;DHT22;4391;48.678;9.280;2022-10-18T14:01:01;22.80;1.00
8709;DHT22;4391;48.678;9.280;2022-10-18T14:03:39;22.80;1.00
8709;DHT22;4391;48.678;9.280;2022-10-18T14:06:10;22.70;1.00
8709;DHT22;4391;48.678;9.280;2022-10-18T14:08:41;22.70;1.00
8709;DHT22;4391;48.678;9.280;2022-10-18T14:11:26;22.40;99.90
8709;DHT22;4391;48.678;9.280;2022-10-18T14:13:56;22.20;1.00
8709;DHT22;4391;48.678;9.280;2022-10-18T14:16:35;22.10;1.00
8709;DHT22;4391;48.678;9.280;2022-10-18T14:19:12;22.10;1.00
8709;DHT22;4391;48.678;9.280;2022-10-18T14:21:49;22.10;1.00
8709;DHT22;4391;48.678;9.280;2022-10-18T14:24:19;22.00;99.90
8709;DHT22;4391;48.678;9.280;2022-10-18T14:26:47;22.00;99.90
8709;DHT22;4391;48.678;9.280;2022-10-18T14:29:18;21.90;99.90
8709;DHT22;4391;48.678;9.280;2022-10-18T14:31:51;21.80;1.00
8709;DHT22;4391;48.678;9.280;2022-10-18T14:34:18;21.70;1.00
8709;DHT22;4391;48.678;9.280;2022-10-18T14:36:48;21.70;52.80
8709;DHT22;4391;48.678;9.280;2022-10-18T14:39:18;21.70;67.20
8709;DHT22;4391;48.678;9.280;2022-10-18T14:41:50;21.70;99.90
8709;DHT22;4391;48.678;9.280;2022-10-18T14:44:19;21.60;1.00
8709;DHT22;4391;48.678;9.280;2022-10-18T14:46:48;21.60;1.00
8709;DHT22;4391;48.678;9.280;2022-10-18T14:49:16;21.60;1.00
8709;DHT22;4391;48.678;9.280;2022-10-18T14:51:47;21.50;99.90
8709;DHT22;4391;48.678;9.280;2022-10-18T14:54:17;21.40;99.90
8709;DHT22;4391;48.678;9.280;2022-10-18T14:56:45;21.40;1.00
8709;DHT22;4391;48.678;9.280;2022-10-18T14:59:15;21.30;99.90
8709;DHT22;4391;48.678;9.280;2022-10-18T15:01:51;21.20;1.00
8709;DHT22;4391;48.678;9.280;2022-10-18T15:04:18;21.20;99.90
8709;DHT22;4391;48.678;9.280;2022-10-18T15:06:47;21.20;99.90
8709;DHT22;4391;48.678;9.280;2022-10-18T15:09:15;21.20;1.00
8709;DHT22;4391;48.678;9.280;2022-10-18T15:11:46;21.20;99.90
8709;DHT22;4391;48.678;9.280;2022-10-18T15:14:15;21.10;99.90
8709;DHT22;4391;48.678;9.280;2022-10-18T15:16:43;21.00;1.00
8709;DHT22;4391;48.678;9.280;2022-10-18T15:19:26;21.00;1.00
8709;DHT22;4391;48.678;9.280;2022-10-18T15:21:56;21.00;1.00
8709;DHT22;4391;48.678;9.280;2022-10-18T15:24:34;20.90;99.90
8709;DHT22;4391;48.678;9.280;2022-10-18T15:27:13;20.80;1.00
8709;DHT22;4391;48.678;9.280;2022-10-18T15:29:43;20.80;1.00
8709;DHT22;4391;48.678;9.280;2022-10-18T15:32:17;20.70;1.00
8709;DHT22;4391;48.678;9.280;2022-10-18T15:34:45;20.60;99.90
8709;DHT22;4391;48.678;9.280;2022-10-18T15:37:29;20.70;99.90
8709;DHT22;4391;48.678;9.280;2022-10-18T15:43:02;21.50;1.00
8709;DHT22;4391;48.678;9.280;2022-10-18T15:45:33;21.30;99.90
8709;DHT22;4391;48.678;9.280;2022-10-18T15:48:15;21.00;1.00
8709;DHT22;4391;48.678;9.280;2022-10-18T15:50:44;20.60;99.90
8709;DHT22;4391;48.678;9.280;2022-10-18T15:53:44;20.30;99.90
8709;DHT22;4391;48.678;9.280;2022-10-18T15:56:30;20.30;99.90
8709;DHT22;4391;48.678;9.280;2022-10-18T15:58:58;20.00;99.90
8709;DHT22;4391;48.678;9.280;2022-10-18T16:01:33;19.90;99.90
8709;DHT22;4391;48.678;9.280;2022-10-18T16:04:04;19.80;1.00
8709;DHT22;4391;48.678;9.280;2022-10-18T16:06:32;19.60;1.00
8709;DHT22;4391;48.678;9.280;2022-10-18T16:09:10;19.50;1.00
8709;DHT22;4391;48.678;9.280;2022-10-18T16:11:38;19.40;1.00
8709;DHT22;4391;48.678;9.280;2022-10-18T16:14:05;19.30;1.00
8709;DHT22;4391;48.678;9.280;2022-10-18T16:16:32;19.30;1.00
8709;DHT22;4391;48.678;9.280;2022-10-18T16:18:59;19.20;1.00
8709;DHT22;4391;48.678;9.280;2022-10-18T16:21:27;19.20;1.00
8709;DHT22;4391;48.678;9.280;2022-10-18T16:23:54;19.10;1.00
8709;DHT22;4391;48.678;9.280;2022-10-18T16:26:23;19.00;1.00
8709;DHT22;4391;48.678;9.280;2022-10-18T16:28:51;19.00;1.00
8709;DHT22;4391;48.678;9.280;2022-10-18T16:31:20;18.90;1.00
8709;DHT22;4391;48.678;9.280;2022-10-18T16:33:48;18.80;1.00
8709;DHT22;4391;48.678;9.280;2022-10-18T16:36:16;18.80;1.00
8709;DHT22;4391;48.678;9.280;2022-10-18T16:38:44;18.80;1.00
8709;DHT22;4391;48.678;9.280;2022-10-18T16:41:11;18.70;1.00
8709;DHT22;4391;48.678;9.280;2022-10-18T16:43:42;18.70;1.00
8709;DHT22;4391;48.678;9.280;2022-10-18T16:46:13;18.60;1.00
8709;DHT22;4391;48.678;9.280;2022-10-18T16:48:40;18.60;1.00
8709;DHT22;4391;48.678;9.280;2022-10-18T16:51:08;18.60;1.00
8709;DHT22;4391;48.678;9.280;2022-10-18T16:53:35;18.60;1.00
8709;DHT22;4391;48.678;9.280;2022-10-18T16:56:03;18.50;1.00
8709;DHT22;4391;48.678;9.280;2022-10-18T16:58:32;18.50;1.00
8709;DHT22;4391;48.678;9.280;2022-10-18T17:01:00;18.50;1.00
8709;DHT22;4391;48.678;9.280;2022-10-18T17:03:27;18.50;1.00